Chapeltown, United Kingdom
Current Conditions -  °F | °C
As of 2:20 AM on Saturday 20 Dec 2014 (Local Time) from EGCN Reporting Station
Broken Clouds Broken Clouds  
Wind Chill: 38°   Ceiling: 3300
Heat Index: 46°   Visibility: 6mi
Dew Point: 37°   Wind: 24mph
Humidity: 71%   Direction: 270°W
Pressure: 30.03"   Gusts: 38mph
Location:  53.47°N, 1.47°W
Report Text: EGCN 200220Z 27021G33KT 9999 SCT028 BKN033 08/03 Q1017
Loading
Personal Weather Stations






























Interactive Weather Map New forecast layout! Learn more

10-Day Weather Forecast

Advertisements
Track Severe Weather on mobile